Time;durP1;ratioP1;P1;durP2;ratioP2;P2;SDS_P1;SDS_P2;PMS_P1;PMS_P2;Temp;Humidity;BMP_temperature;BMP_pressure;BME280_temperature;BME280_humidity;BME280_pressure;Samples;Min_cycle;Max_cycle;Signal;HPM_P1;HPM_P2
2022/06/19 00:00:21;;;;;;;22.15;4.72;;;;;;;23.94;39.05;95260.97;4941500;29;20193;-78
2022/06/19 00:02:46;;;;;;;15.57;4.53;;;;;;;23.97;38.86;95262.31;4959679;28;20178;-78
2022/06/19 00:05:14;;;;;;;17.50;3.33;;;;;;;23.97;38.60;95260.47;4927037;28;20205;-77
2022/06/19 00:07:40;;;;;;;19.42;4.20;;;;;;;24.00;38.55;95252.03;4932798;28;20174;-78
2022/06/19 00:10:06;;;;;;;16.38;4.22;;;;;;;24.01;38.44;95244.88;4956012;28;20260;-77
2022/06/19 00:12:31;;;;;;;20.23;4.18;;;;;;;23.99;38.85;95242.47;4939698;29;20298;-78
2022/06/19 00:14:57;;;;;;;21.90;4.15;;;;;;;24.01;38.65;95236.94;4960278;28;20173;-79
2022/06/19 00:17:22;;;;;;;17.55;4.13;;;;;;;24.08;38.30;95231.47;4927573;29;20186;-78
2022/06/19 00:19:48;;;;;;;17.20;3.88;;;;;;;24.01;38.69;95226.31;4960264;28;20284;-78
2022/06/19 00:22:13;;;;;;;20.58;4.53;;;;;;;24.09;38.14;95227.78;4942857;28;20183;-79
2022/06/19 00:24:38;;;;;;;13.27;3.92;;;;;;;24.06;38.12;95225.63;4927118;29;20247;-78
2022/06/19 00:27:04;;;;;;;13.52;4.10;;;;;;;24.06;38.18;95220.31;4910099;29;20261;-78
2022/06/19 00:29:29;;;;;;;14.93;3.83;;;;;;;24.06;38.14;95215.81;4925622;29;20201;-78
2022/06/19 00:31:55;;;;;;;18.38;3.65;;;;;;;24.10;38.01;95208.16;4925065;29;20177;-78
2022/06/19 00:34:21;;;;;;;14.77;3.50;;;;;;;24.15;38.40;95198.44;4924699;29;20332;-78
2022/06/19 00:36:49;;;;;;;16.05;4.05;;;;;;;24.14;38.08;95196.84;4941184;29;20177;-78
2022/06/19 00:39:18;;;;;;;16.83;4.30;;;;;;;24.08;38.20;95189.84;4941101;29;20193;-78
2022/06/19 00:41:44;;;;;;;17.70;4.63;;;;;;;24.03;38.34;95187.13;4924842;29;20185;-78
2022/06/19 00:44:12;;;;;;;17.13;3.40;;;;;;;23.97;38.49;95182.78;4939951;29;20193;-78
2022/06/19 00:46:54;;;;;;;13.43;3.55;;;;;;;23.98;38.54;95174.56;4911248;29;20189;-78
2022/06/19 00:49:23;;;;;;;20.15;4.47;;;;;;;23.96;38.46;95186.47;4922608;29;20244;-78
2022/06/19 00:51:56;;;;;;;16.70;3.83;;;;;;;23.97;38.46;95180.91;4939876;29;20253;-79
2022/06/19 00:54:21;;;;;;;16.33;3.70;;;;;;;23.92;38.59;95180.81;4922251;29;20174;-78
2022/06/19 00:56:47;;;;;;;11.40;3.40;;;;;;;23.97;38.71;95182.78;4907238;29;20189;-78
2022/06/19 00:59:14;;;;;;;17.70;3.80;;;;;;;23.84;39.07;95178.56;4906327;29;20197;-78
2022/06/19 01:01:39;;;;;;;12.43;4.18;;;;;;;23.93;38.69;95171.00;4922728;29;20189;-78
2022/06/19 01:04:22;;;;;;;12.98;3.58;;;;;;;23.93;38.73;95161.22;4921234;29;20205;-78
2022/06/19 01:06:48;;;;;;;12.38;3.20;;;;;;;24.00;38.53;95161.06;4905853;29;20185;-78
2022/06/19 01:09:15;;;;;;;24.40;4.32;;;;;;;23.98;38.47;95160.50;4942628;29;20620;-78
2022/06/19 01:11:40;;;;;;;16.50;4.07;;;;;;;23.94;38.70;95164.66;4925186;29;20174;-77
2022/06/19 01:14:09;;;;;;;13.25;4.32;;;;;;;23.91;38.69;95160.66;4909045;29;20189;-78
2022/06/19 01:16:34;;;;;;;15.70;3.70;;;;;;;23.93;38.64;95161.22;4924977;29;20197;-79
2022/06/19 01:19:00;;;;;;;10.15;3.88;;;;;;;23.89;38.72;95154.78;4925636;29;20206;-78
2022/06/19 01:21:35;;;;;;;12.82;3.42;;;;;;;23.79;38.86;95151.16;4909697;29;20189;-78
2022/06/19 01:24:33;;;;;;;13.57;3.53;;;;;;;23.78;38.97;95150.38;4943783;29;20204;-78
2022/06/19 01:27:01;;;;;;;14.23;3.78;;;;;;;23.74;38.65;95149.22;4928924;29;20181;-78
2022/06/19 01:29:31;;;;;;;14.38;3.40;;;;;;;23.83;38.21;95149.63;4929094;29;20627;-79
2022/06/19 01:31:57;;;;;;;11.98;3.45;;;;;;;23.79;38.42;95149.31;4945345;29;20200;-78
2022/06/19 01:34:28;;;;;;;12.15;3.50;;;;;;;23.92;38.04;95143.69;4943753;29;20169;-79
2022/06/19 01:37:14;;;;;;;15.82;3.75;;;;;;;23.91;38.15;95139.44;4945602;28;20177;-78
2022/06/19 01:39:48;;;;;;;13.00;3.92;;;;;;;23.85;38.26;95143.03;4928697;29;20790;-77
2022/06/19 01:42:13;;;;;;;11.50;3.78;;;;;;;23.78;38.69;95136.31;4928552;29;20264;-78
2022/06/19 01:44:40;;;;;;;16.50;3.90;;;;;;;23.74;38.64;95142.06;4942923;29;20229;-78
2022/06/19 01:47:05;;;;;;;16.17;3.90;;;;;;;23.70;38.74;95143.59;4926984;29;20263;-78
2022/06/19 01:49:32;;;;;;;13.40;3.78;;;;;;;23.65;39.12;95148.00;4927383;28;20194;-78
2022/06/19 01:51:58;;;;;;;15.55;4.07;;;;;;;23.52;39.21;95148.28;4960904;29;20593;-78
2022/06/19 01:54:28;;;;;;;13.77;3.60;;;;;;;23.48;39.55;95152.44;4926819;29;20216;-78
2022/06/19 01:56:54;;;;;;;13.52;3.58;;;;;;;23.38;39.57;95137.97;4941823;29;20681;-77
2022/06/19 01:59:21;;;;;;;14.10;4.03;;;;;;;23.52;39.50;95137.69;4942444;29;20581;-78
2022/06/19 02:01:47;;;;;;;11.80;3.90;;;;;;;23.40;39.54;95141.19;4943754;29;20189;-78
2022/06/19 02:04:13;;;;;;;10.93;3.50;;;;;;;23.43;39.37;95142.56;4942351;29;20197;-77
2022/06/19 02:06:42;;;;;;;16.75;4.75;;;;;;;23.39;39.84;95147.50;4960125;28;20236;-78
2022/06/19 02:09:08;;;;;;;14.80;4.03;;;;;;;23.32;39.94;95138.94;4927248;29;20616;-78
2022/06/19 02:11:35;;;;;;;13.73;3.47;;;;;;;23.31;39.91;95137.28;4942921;28;20616;-78
2022/06/19 02:14:03;;;;;;;11.65;3.67;;;;;;;23.33;39.78;95129.94;4942073;29;20272;-78
2022/06/19 02:16:28;;;;;;;17.60;4.68;;;;;;;23.35;40.07;95129.69;4942906;29;20184;-78
2022/06/19 02:18:54;;;;;;;11.77;3.72;;;;;;;23.35;39.84;95125.19;4942170;29;20201;-78
2022/06/19 02:21:52;;;;;;;15.60;3.90;;;;;;;23.16;40.46;95134.38;4927419;29;20205;-79
2022/06/19 02:24:20;;;;;;;10.80;3.65;;;;;;;23.04;40.54;95121.16;4958815;29;20678;-78
2022/06/19 02:26:47;;;;;;;14.85;3.75;;;;;;;22.98;40.82;95122.13;4926945;29;20187;-79
2022/06/19 02:29:16;;;;;;;16.13;4.03;;;;;;;22.91;41.01;95120.66;4943096;29;20229;-78
2022/06/19 02:31:43;;;;;;;13.95;3.75;;;;;;;22.78;41.84;95119.81;4927435;29;20177;-78
2022/06/19 02:34:16;;;;;;;19.23;4.20;;;;;;;22.68;42.11;95121.47;4926357;29;20224;-78
2022/06/19 02:36:47;;;;;;;11.52;3.88;;;;;;;22.57;42.54;95120.44;4943172;28;20515;-78
2022/06/19 02:39:38;;;;;;;11.32;3.65;;;;;;;22.58;42.24;95114.91;4927583;29;20296;-78
2022/06/19 02:42:22;;;;;;;14.10;4.10;;;;;;;22.40;42.94;95114.25;4942798;29;20272;-78
2022/06/19 02:44:50;;;;;;;15.02;3.70;;;;;;;22.32;42.94;95118.84;4960209;29;20237;-79
2022/06/19 02:47:15;;;;;;;12.75;4.07;;;;;;;22.34;42.91;95111.47;4959544;29;20204;-78
2022/06/19 02:49:41;;;;;;;13.05;4.15;;;;;;;22.31;43.14;95113.81;4942868;29;20689;-78
2022/06/19 02:52:07;;;;;;;12.88;3.80;;;;;;;22.25;43.29;95107.56;4942703;29;20185;-78
2022/06/19 02:54:33;;;;;;;17.50;3.97;;;;;;;22.22;43.71;95108.06;4941949;29;20264;-79
2022/06/19 02:56:58;;;;;;;15.02;4.10;;;;;;;22.25;43.21;95106.78;4942691;29;20284;-78
2022/06/19 02:59:24;;;;;;;16.23;4.13;;;;;;;22.14;43.73;95113.69;4941518;29;20586;-78
2022/06/19 03:01:49;;;;;;;12.75;3.72;;;;;;;22.22;43.66;95108.06;4942292;29;20322;-78
2022/06/19 03:04:18;;;;;;;13.07;3.95;;;;;;;22.13;43.96;95103.34;4942151;29;20205;-78
2022/06/19 03:06:44;;;;;;;13.45;4.07;;;;;;;22.10;44.09;95101.97;4942483;29;20201;-78
2022/06/19 03:09:10;;;;;;;13.57;4.25;;;;;;;22.16;43.47;95102.88;4927017;29;20197;-78
2022/06/19 03:11:35;;;;;;;17.83;4.10;;;;;;;22.34;42.90;95098.25;4926535;29;20250;-78
2022/06/19 03:14:00;;;;;;;17.95;4.55;;;;;;;22.62;41.86;95096.75;4942039;29;20236;-78
2022/06/19 03:16:26;;;;;;;15.98;4.55;;;;;;;22.73;41.87;95093.25;4926211;29;20573;-78
2022/06/19 03:18:52;;;;;;;22.55;4.97;;;;;;;22.96;41.11;95087.09;4959545;28;20204;-78
2022/06/19 03:21:17;;;;;;;17.65;5.13;;;;;;;23.20;40.66;95082.53;4959269;28;20625;-78
2022/06/19 03:23:42;;;;;;;17.00;4.10;;;;;;;23.24;41.03;95091.63;4941486;29;20216;-78
2022/06/19 03:26:08;;;;;;;19.80;5.13;;;;;;;23.44;40.55;95088.53;4947152;28;20264;-78
2022/06/19 03:28:33;;;;;;;17.17;5.22;;;;;;;23.68;40.10;95083.94;4959434;28;20284;-78
2022/06/19 03:30:58;;;;;;;18.52;5.03;;;;;;;23.65;40.13;95090.50;4958658;28;20189;-78
2022/06/19 03:33:24;;;;;;;12.88;5.00;;;;;;;23.72;40.05;95069.94;4942094;29;20208;-78
2022/06/19 03:35:50;;;;;;;18.15;5.40;;;;;;;23.80;40.01;95070.59;4940905;29;20173;-78
2022/06/19 03:38:16;;;;;;;14.38;4.75;;;;;;;23.95;40.09;95076.13;4941229;29;20177;-79
2022/06/19 03:40:41;;;;;;;14.82;4.97;;;;;;;24.03;39.93;95073.06;4940823;28;20724;-78
2022/06/19 03:43:06;;;;;;;14.48;5.50;;;;;;;24.14;39.46;95072.16;4941664;29;20185;-78
2022/06/19 03:45:31;;;;;;;14.07;5.80;;;;;;;24.24;39.55;95066.22;4924764;29;20212;-78
2022/06/19 03:47:57;;;;;;;21.98;5.88;;;;;;;24.36;39.15;95071.44;4940979;29;20557;-78
2022/06/19 03:50:22;;;;;;;13.38;6.10;;;;;;;24.45;38.88;95067.31;4942224;29;20217;-78
2022/06/19 03:52:47;;;;;;;17.00;5.55;;;;;;;24.66;38.66;95073.69;4925707;29;20236;-79
2022/06/19 03:55:13;;;;;;;20.23;6.28;;;;;;;24.99;37.92;95078.03;4941294;29;20173;-78
2022/06/19 03:57:38;;;;;;;13.10;5.32;;;;;;;25.67;36.87;95076.63;4941358;29;20237;-78
2022/06/19 04:00:04;;;;;;;16.48;5.82;;;;;;;26.27;35.63;95067.50;4938362;29;20243;-77
2022/06/19 04:02:30;;;;;;;12.95;5.70;;;;;;;26.76;35.19;95075.22;4955649;28;20223;-77
2022/06/19 04:04:59;;;;;;;14.18;5.22;;;;;;;27.06;34.68;95079.91;4922414;29;20205;-77
2022/06/19 04:07:24;;;;;;;13.65;5.45;;;;;;;27.44;34.30;95080.53;4922275;28;20263;-78
2022/06/19 04:09:50;;;;;;;14.48;4.88;;;;;;;27.55;33.24;95084.78;4956347;29;20239;-78
2022/06/19 04:12:16;;;;;;;12.93;5.32;;;;;;;27.57;34.14;95080.03;4956187;28;20220;-78
2022/06/19 04:14:41;;;;;;;14.98;5.47;;;;;;;28.08;32.27;95080.81;4955521;28;20173;-78
2022/06/19 04:17:07;;;;;;;14.82;5.30;;;;;;;28.39;31.98;95083.50;4956021;29;20177;-77
2022/06/19 04:19:32;;;;;;;19.52;5.90;;;;;;;28.90;31.04;95086.03;4938977;29;20208;-78
2022/06/19 04:21:58;;;;;;;17.15;5.95;;;;;;;29.25;30.40;95087.75;4938872;28;20181;-78
2022/06/19 04:24:23;;;;;;;19.63;5.57;;;;;;;29.51;30.39;95091.91;4937490;29;20208;-78
2022/06/19 04:26:49;;;;;;;16.15;5.93;;;;;;;30.02;29.35;95086.13;4938741;29;20323;-78
2022/06/19 04:29:15;;;;;;;20.38;6.53;;;;;;;30.04;29.88;95089.34;4938828;29;20223;-78
2022/06/19 04:31:41;;;;;;;16.10;6.60;;;;;;;30.32;29.72;95092.34;4922719;29;20585;-78
2022/06/19 04:34:06;;;;;;;12.68;5.72;;;;;;;31.15;28.57;95083.09;4937820;29;20180;-78
2022/06/19 04:36:32;;;;;;;16.25;6.38;;;;;;;30.97;28.52;95084.69;4955338;29;20205;-78
2022/06/19 04:38:58;;;;;;;14.25;6.35;;;;;;;31.64;28.02;95098.81;4938277;29;20295;-78
2022/06/19 04:41:26;;;;;;;13.32;6.63;;;;;;;32.16;27.63;95098.81;4937517;29;20192;-78
2022/06/19 04:43:52;;;;;;;20.35;7.07;;;;;;;32.37;26.78;95095.53;4937790;29;20208;-78
2022/06/19 04:46:18;;;;;;;12.48;6.00;;;;;;;32.48;27.45;95096.16;4938176;29;20229;-78
2022/06/19 04:48:44;;;;;;;16.13;4.63;;;;;;;34.18;24.36;95097.69;4923608;29;20604;-77
2022/06/19 04:51:09;;;;;;;11.90;4.50;;;;;;;34.41;24.20;95101.97;4937188;29;20284;-77
2022/06/19 04:53:37;;;;;;;11.52;5.00;;;;;;;35.12;23.03;95110.06;4954595;28;20188;-77
2022/06/19 04:56:03;;;;;;;13.38;4.63;;;;;;;35.37;23.25;95112.03;4937473;29;20637;-78
2022/06/19 04:58:29;;;;;;;11.70;4.63;;;;;;;35.06;23.73;95116.69;4937880;29;20248;-78
2022/06/19 05:00:55;;;;;;;13.00;4.55;;;;;;;34.88;23.82;95110.44;4920879;29;20185;-77
2022/06/19 05:03:21;;;;;;;10.20;5.03;;;;;;;35.19;23.97;95116.59;4936940;28;20260;-77
2022/06/19 05:05:47;;;;;;;11.93;4.88;;;;;;;35.33;23.83;95121.06;4921157;29;20254;-78
2022/06/19 05:08:12;;;;;;;13.73;5.00;;;;;;;35.25;23.41;95122.63;4937355;29;20216;-78
2022/06/19 05:10:37;;;;;;;10.85;5.15;;;;;;;36.24;22.53;95122.88;4938197;29;20189;-78
2022/06/19 05:13:06;;;;;;;16.15;5.40;;;;;;;33.86;26.65;95112.97;4937320;29;20708;-78
2022/06/19 05:15:32;;;;;;;14.18;4.45;;;;;;;35.71;23.39;95122.09;4921301;29;20211;-78
2022/06/19 05:17:57;;;;;;;12.45;4.97;;;;;;;35.52;23.91;95123.50;4921331;28;20177;-78
2022/06/19 05:20:23;;;;;;;16.15;5.15;;;;;;;33.06;27.94;95110.94;4953663;29;20205;-77
2022/06/19 05:22:48;;;;;;;14.05;5.38;;;;;;;33.93;26.49;95102.63;4922025;29;20654;-78
2022/06/19 05:25:14;;;;;;;14.57;5.13;;;;;;;33.55;27.61;95109.38;4921473;29;20578;-78
2022/06/19 05:27:40;;;;;;;12.43;5.18;;;;;;;33.71;27.17;95107.94;4937431;29;20646;-78
2022/06/19 05:30:07;;;;;;;12.05;4.93;;;;;;;34.30;27.80;95106.00;4921799;29;20674;-78
2022/06/19 05:32:32;;;;;;;15.55;6.20;;;;;;;34.95;26.09;95110.00;4937285;28;20189;-77
2022/06/19 05:34:58;;;;;;;11.85;5.85;;;;;;;35.72;24.12;95110.19;4937061;29;20184;-77
2022/06/19 05:37:23;;;;;;;10.45;5.85;;;;;;;36.28;23.42;95110.31;4921966;29;20170;-78
2022/06/19 05:39:48;;;;;;;14.25;6.00;;;;;;;37.13;22.20;95102.25;4922201;29;20219;-78
2022/06/19 05:42:14;;;;;;;14.23;7.00;;;;;;;36.74;22.71;95104.16;4921794;29;20189;-78
2022/06/19 05:44:39;;;;;;;18.90;7.45;;;;;;;36.77;22.28;95100.81;4954608;29;20221;-78
2022/06/19 05:47:05;;;;;;;14.65;7.75;;;;;;;36.45;22.63;95101.41;4954761;28;20173;-78
2022/06/19 05:49:32;;;;;;;16.95;6.97;;;;;;;36.59;22.50;95110.13;4921626;29;20916;-78
2022/06/19 05:51:59;;;;;;;16.55;6.60;;;;;;;37.02;22.27;95103.72;4938083;28;20236;-78
2022/06/19 05:54:26;;;;;;;14.55;6.63;;;;;;;36.80;22.28;95110.19;4940630;29;20172;-78
2022/06/19 05:56:51;;;;;;;15.85;6.70;;;;;;;37.10;21.74;95105.59;4925063;29;20256;-78
2022/06/19 05:59:16;;;;;;;14.70;6.88;;;;;;;37.26;21.80;95098.50;4940525;29;20200;-78
2022/06/19 06:01:42;;;;;;;14.05;6.82;;;;;;;37.09;21.52;95095.91;4940819;29;20552;-78
2022/06/19 06:04:08;;;;;;;17.17;7.25;;;;;;;37.56;21.02;95095.81;4940185;29;20172;-78
2022/06/19 06:06:33;;;;;;;16.52;7.28;;;;;;;37.57;21.28;95098.19;4924531;29;20188;-78
2022/06/19 06:08:59;;;;;;;14.55;7.22;;;;;;;37.95;20.64;95100.75;4940182;29;20196;-78
2022/06/19 06:11:24;;;;;;;16.35;6.72;;;;;;;37.52;20.70;95103.00;4925115;29;20180;-78
2022/06/19 06:13:50;;;;;;;15.60;7.22;;;;;;;37.30;20.66;95102.19;4943830;29;20176;-77
2022/06/19 06:16:17;;;;;;;20.20;7.10;;;;;;;37.28;20.42;95104.38;4935670;28;20172;-78
2022/06/19 06:18:43;;;;;;;12.93;6.90;;;;;;;37.64;20.38;95108.50;4964678;28;20188;-77
2022/06/19 06:21:14;;;;;;;13.20;6.47;;;;;;;38.03;19.89;95111.88;4963853;29;20196;-77
2022/06/19 06:23:39;;;;;;;16.38;7.15;;;;;;;38.01;19.93;95104.06;4980007;28;20252;-78
2022/06/19 06:26:06;;;;;;;14.48;6.97;;;;;;;37.67;20.34;95114.03;4954858;28;20186;-78
2022/06/19 06:28:32;;;;;;;17.35;6.82;;;;;;;38.29;19.55;95114.34;4906884;29;20304;-78
2022/06/19 06:30:57;;;;;;;20.70;7.40;;;;;;;37.76;20.31;95105.84;4922899;29;20646;-79
2022/06/19 06:33:22;;;;;;;16.27;7.43;;;;;;;37.27;20.69;95118.25;4923166;29;20180;-78
2022/06/19 06:35:48;;;;;;;16.77;8.02;;;;;;;37.46;20.27;95110.53;4921023;29;20213;-79
2022/06/19 06:38:13;;;;;;;14.32;6.97;;;;;;;38.07;19.98;95118.19;4938035;29;20213;-79
2022/06/19 06:40:38;;;;;;;12.70;6.75;;;;;;;39.07;18.45;95115.06;4922701;29;20667;-78
2022/06/19 06:43:04;;;;;;;16.42;6.85;;;;;;;38.53;19.11;95117.94;4937569;29;20608;-81
2022/06/19 06:45:29;;;;;;;16.02;6.88;;;;;;;38.78;19.17;95126.13;4905414;29;20193;-80
2022/06/19 06:47:55;;;;;;;14.85;6.78;;;;;;;38.84;19.00;95122.06;4921986;29;20197;-81
2022/06/19 06:50:20;;;;;;;14.05;7.05;;;;;;;38.50;18.74;95115.88;4905778;29;20244;-81
2022/06/19 06:52:46;;;;;;;13.90;7.30;;;;;;;39.23;18.46;95117.94;4906456;29;20196;-80
2022/06/19 06:55:12;;;;;;;14.90;7.75;;;;;;;38.66;19.34;95121.44;4920098;29;20257;-79
2022/06/19 06:57:37;;;;;;;11.23;5.35;;;;;;;39.41;19.36;95123.91;4906849;29;20182;-80
2022/06/19 07:00:04;;;;;;;15.00;5.13;;;;;;;38.46;20.75;95123.09;4921967;29;20212;-80
2022/06/19 07:02:29;;;;;;;19.58;6.25;;;;;;;35.91;23.17;95117.19;4921483;29;20654;-80
2022/06/19 07:04:55;;;;;;;18.20;6.57;;;;;;;38.28;21.06;95126.34;4920021;29;20189;-80
2022/06/19 07:07:20;;;;;;;18.08;6.28;;;;;;;37.34;22.94;95116.66;4906126;29;20181;-80
2022/06/19 07:09:45;;;;;;;19.38;5.50;;;;;;;37.34;22.95;95127.47;4920915;29;20602;-80
2022/06/19 07:12:11;;;;;;;12.75;5.22;;;;;;;37.85;22.22;95124.78;4921149;29;20186;-79
2022/06/19 07:14:36;;;;;;;17.05;5.50;;;;;;;36.57;23.69;95120.44;4936342;29;20198;-80
2022/06/19 07:17:02;;;;;;;13.48;6.22;;;;;;;37.79;21.63;95137.72;4904978;29;20609;-80
2022/06/19 07:19:27;;;;;;;21.25;7.07;;;;;;;38.14;21.25;95137.44;4921292;29;20195;-80
2022/06/19 07:21:52;;;;;;;13.77;6.40;;;;;;;38.76;21.30;95136.53;4938005;29;20713;-80
2022/06/19 07:24:18;;;;;;;15.98;5.88;;;;;;;38.43;21.90;95137.34;4920251;29;20178;-80
2022/06/19 07:26:43;;;;;;;19.23;6.50;;;;;;;38.61;21.41;95140.66;4905159;29;20288;-80
2022/06/19 07:29:08;;;;;;;10.70;6.82;;;;;;;38.89;21.36;95142.78;4905569;29;20213;-80
2022/06/19 07:31:35;;;;;;;18.92;6.70;;;;;;;36.62;22.17;95144.63;4920290;29;20178;-80
2022/06/19 07:34:00;;;;;;;20.10;7.70;;;;;;;36.26;23.48;95151.19;4903121;29;20756;-79
2022/06/19 07:36:25;;;;;;;17.73;9.10;;;;;;;36.13;21.42;95144.03;4919373;29;20635;-80
2022/06/19 07:38:51;;;;;;;19.38;9.63;;;;;;;36.63;21.63;95146.19;4903197;29;20198;-81
2022/06/19 07:41:16;;;;;;;16.90;8.43;;;;;;;36.20;22.74;95144.34;4903031;29;20177;-79
2022/06/19 07:43:43;;;;;;;13.50;8.15;;;;;;;36.76;20.97;95134.41;4926150;29;20273;-79
2022/06/19 07:46:09;;;;;;;16.33;8.45;;;;;;;36.00;22.07;95145.81;4922261;28;20181;-78
2022/06/19 07:51:19;;;;;;;14.27;8.63;;;;;;;33.96;23.32;95123.53;4941181;29;20354;-79
2022/06/19 07:53:44;;;;;;;10.32;8.13;;;;;;;34.97;22.21;95134.75;4937186;28;20261;-79
2022/06/19 07:56:09;;;;;;;12.65;7.35;;;;;;;35.22;22.32;95120.56;4935381;29;20572;-79
2022/06/19 07:58:35;;;;;;;15.30;8.05;;;;;;;35.04;22.04;95119.72;4930889;28;20205;-79
2022/06/19 08:01:01;;;;;;;18.23;7.93;;;;;;;35.63;22.11;95124.78;4932295;29;20170;-80
2022/06/19 08:03:26;;;;;;;15.13;7.28;;;;;;;34.74;20.36;95121.34;4953422;29;20290;-79
2022/06/19 08:05:51;;;;;;;13.55;7.75;;;;;;;33.62;22.96;95115.94;4950309;29;20256;-79
2022/06/19 08:08:20;;;;;;;17.23;6.78;;;;;;;33.06;22.80;95121.72;4936544;29;20181;-80
2022/06/19 08:10:50;;;;;;;10.80;7.00;;;;;;;33.93;22.61;95118.78;4931754;28;20184;-80
2022/06/19 08:13:19;;;;;;;17.88;7.13;;;;;;;34.21;22.48;95127.53;4936615;29;20276;-78
2022/06/19 08:15:46;;;;;;;11.82;7.03;;;;;;;34.69;21.78;95124.16;4952487;28;20373;-78
2022/06/19 08:18:11;;;;;;;10.13;6.30;;;;;;;34.01;22.12;95126.09;4952355;29;20180;-79
2022/06/19 08:20:36;;;;;;;16.30;7.32;;;;;;;33.88;21.72;95115.38;4952464;28;20181;-79
2022/06/19 08:23:03;;;;;;;13.85;7.05;;;;;;;33.49;22.01;95114.09;4935028;29;20212;-79
2022/06/19 08:25:28;;;;;;;13.05;6.82;;;;;;;34.22;21.97;95106.75;4953374;28;20182;-78
2022/06/19 08:27:54;;;;;;;9.57;6.00;;;;;;;34.45;21.94;95115.63;4952910;28;20236;-78
2022/06/19 08:30:23;;;;;;;15.90;7.13;;;;;;;34.17;21.75;95123.84;4952427;29;20213;-79
2022/06/19 08:32:49;;;;;;;10.23;6.07;;;;;;;34.04;21.89;95114.72;4952332;28;20180;-79
2022/06/19 08:35:14;;;;;;;8.75;6.60;;;;;;;34.31;22.34;95115.69;4951376;28;20216;-78
2022/06/19 08:37:41;;;;;;;12.10;6.90;;;;;;;34.55;22.13;95124.25;4952012;29;20872;-79
2022/06/19 08:40:21;;;;;;;12.07;6.53;;;;;;;34.21;22.17;95124.03;4952202;29;20212;-81
2022/06/19 08:42:57;;;;;;;11.60;6.55;;;;;;;34.07;21.93;95111.41;4948445;28;20184;-80
2022/06/19 08:45:30;;;;;;;12.35;6.57;;;;;;;33.64;22.84;95115.63;4965166;28;20176;-81
2022/06/19 08:48:06;;;;;;;9.52;6.25;;;;;;;34.12;22.09;95115.88;4934477;29;20645;-79
2022/06/19 08:50:47;;;;;;;11.80;5.88;;;;;;;33.62;21.76;95131.31;4920947;29;20295;-79
2022/06/19 08:53:43;;;;;;;12.82;6.07;;;;;;;32.94;22.04;95114.91;4953699;29;20239;-79
2022/06/19 08:56:10;;;;;;;13.48;6.72;;;;;;;33.30;22.28;95114.19;4937248;29;20282;-79
2022/06/19 08:58:59;;;;;;;11.55;6.00;;;;;;;33.51;22.30;95114.59;4952842;28;20284;-78
2022/06/19 09:01:44;;;;;;;11.98;5.50;;;;;;;33.90;21.52;95116.66;4937669;29;20188;-80
2022/06/19 09:07:23;;;;;;;14.40;6.13;;;;;;;33.60;21.80;95118.16;4955272;28;20184;-79
2022/06/19 09:10:12;;;;;;;10.20;5.85;;;;;;;33.51;21.01;95128.84;4954126;28;20189;-81
2022/06/19 09:12:46;;;;;;;9.88;5.60;;;;;;;33.29;22.13;95123.34;4938427;29;20188;-79
2022/06/19 09:15:17;;;;;;;15.00;5.75;;;;;;;33.85;22.16;95127.56;4955387;29;20215;-79
2022/06/19 09:17:48;;;;;;;13.05;6.25;;;;;;;33.72;21.41;95123.00;4954049;29;20219;-79
2022/06/19 09:20:32;;;;;;;13.18;6.32;;;;;;;33.77;21.21;95123.69;4954729;28;20345;-79
2022/06/19 09:23:28;;;;;;;7.65;5.53;;;;;;;33.78;21.25;95119.88;4954797;28;20170;-80
2022/06/19 09:26:00;;;;;;;11.02;5.88;;;;;;;33.85;21.73;95110.59;4953723;29;20173;-80
2022/06/19 09:28:34;;;;;;;14.98;6.50;;;;;;;34.16;22.26;95121.44;4954759;28;20192;-80
2022/06/19 09:31:06;;;;;;;8.57;5.35;;;;;;;34.50;21.23;95120.91;4941360;29;20638;-80
2022/06/19 09:33:43;;;;;;;12.80;5.57;;;;;;;34.42;21.69;95122.44;4958205;29;20263;-80
2022/06/19 09:36:17;;;;;;;11.77;5.93;;;;;;;34.44;20.71;95116.72;4957772;28;20205;-79
2022/06/19 09:38:48;;;;;;;10.43;5.80;;;;;;;34.31;20.93;95113.00;4956944;29;20231;-80
2022/06/19 09:41:21;;;;;;;15.90;5.70;;;;;;;34.45;20.56;95124.50;4958569;29;20212;-79
2022/06/19 09:44:06;;;;;;;12.90;5.63;;;;;;;34.67;21.13;95126.38;4957144;28;20264;-79
2022/06/19 09:46:39;;;;;;;11.30;5.55;;;;;;;34.39;21.02;95123.06;4957016;28;20181;-80
2022/06/19 09:49:23;;;;;;;12.32;5.93;;;;;;;34.52;20.99;95119.47;4956605;29;20284;-79
2022/06/19 09:51:53;;;;;;;11.63;5.53;;;;;;;34.59;20.80;95127.91;4956535;28;20189;-79
2022/06/19 09:54:40;;;;;;;12.65;5.78;;;;;;;34.44;20.54;95122.13;4940894;29;20195;-79
2022/06/19 09:57:10;;;;;;;13.02;5.57;;;;;;;34.29;20.87;95126.78;4957116;29;20177;-80
2022/06/19 10:00:23;;;;;;;13.15;6.55;;;;;;;34.02;20.92;95124.22;4957176;29;20224;-79
2022/06/19 10:02:59;;;;;;;9.68;5.22;;;;;;;34.44;20.74;95131.00;4898391;29;20202;-79
2022/06/19 10:05:58;;;;;;;13.45;6.20;;;;;;;34.17;20.81;95133.81;4866880;29;20257;-80
2022/06/19 10:08:31;;;;;;;10.23;5.47;;;;;;;34.14;21.21;95124.47;4809435;29;20190;-79
2022/06/19 10:11:13;;;;;;;11.35;5.18;;;;;;;34.54;21.48;95130.72;4809494;29;20281;-79
2022/06/19 10:13:54;;;;;;;10.63;5.88;;;;;;;34.46;21.33;95122.63;4824471;29;20536;-79
2022/06/19 10:16:45;;;;;;;11.30;5.30;;;;;;;34.62;20.65;95113.81;4809853;29;20202;-80
2022/06/19 10:19:14;;;;;;;11.30;5.43;;;;;;;34.62;20.92;95116.50;4809380;29;20217;-79
2022/06/19 10:22:16;;;;;;;10.93;4.95;;;;;;;34.60;21.17;95120.63;4809986;29;20182;-79
2022/06/19 10:25:03;;;;;;;8.70;5.43;;;;;;;34.52;21.54;95121.38;4810977;29;20224;-78
2022/06/19 10:27:43;;;;;;;7.45;5.80;;;;;;;34.57;21.39;95116.66;4790135;29;20222;-78
2022/06/19 10:30:13;;;;;;;9.40;5.00;;;;;;;34.48;20.98;95106.94;4805926;29;20346;-79
2022/06/19 10:33:11;;;;;;;11.73;5.85;;;;;;;34.36;21.71;95110.94;4775777;29;20195;-78
2022/06/19 10:35:48;;;;;;;9.55;5.50;;;;;;;34.44;21.40;95114.03;4805629;29;20211;-79
2022/06/19 10:38:34;;;;;;;11.10;5.90;;;;;;;34.69;21.96;95113.38;4797559;29;20190;-79
2022/06/19 10:42:00;;;;;;;14.27;6.15;;;;;;;34.72;21.42;95112.75;4863547;29;20180;-79
2022/06/19 10:44:04;;;;;;;12.27;6.45;;;;;;;34.49;21.78;95114.72;4866863;29;20188;-79
2022/06/19 10:46:30;;;;;;;14.85;6.18;;;;;;;34.48;22.23;95118.50;4956107;29;20188;-79
2022/06/19 10:49:11;;;;;;;9.48;6.00;;;;;;;34.05;21.88;95100.16;4956269;29;20193;-80
2022/06/19 10:51:58;;;;;;;14.38;5.75;;;;;;;34.06;22.81;95101.75;4924340;29;20287;-79
2022/06/19 10:54:52;;;;;;;13.00;5.75;;;;;;;34.82;21.65;95101.69;4956587;28;20205;-79
2022/06/19 10:57:33;;;;;;;10.90;6.15;;;;;;;34.62;21.49;95107.63;4955903;29;20181;-80
2022/06/19 10:59:59;;;;;;;11.18;6.38;;;;;;;34.31;22.57;95110.31;4956282;28;20201;-80
2022/06/19 11:05:24;;;;;;;11.85;6.60;;;;;;;34.31;22.39;95102.22;4955747;28;20260;-78
2022/06/19 11:07:50;;;;;;;13.30;6.45;;;;;;;34.41;22.61;95107.38;4956636;28;20615;-80
2022/06/19 11:10:19;;;;;;;17.67;7.07;;;;;;;34.79;22.85;95112.28;4955777;29;20196;-80
2022/06/19 11:12:56;;;;;;;17.27;5.97;;;;;;;34.71;22.72;95103.06;4956263;29;20268;-80
2022/06/19 11:15:24;;;;;;;16.23;6.20;;;;;;;34.27;23.03;95093.13;4955349;28;20209;-79
2022/06/19 11:17:50;;;;;;;13.13;6.97;;;;;;;34.43;22.80;95093.56;4956944;28;20685;-79
2022/06/19 11:20:30;;;;;;;13.02;6.32;;;;;;;34.44;23.11;95095.97;4955561;29;20209;-80
2022/06/19 11:23:01;;;;;;;18.20;6.70;;;;;;;34.61;22.67;95106.03;4939643;29;20209;-80
2022/06/19 11:25:30;;;;;;;11.70;5.97;;;;;;;35.03;22.42;95101.94;4955836;28;20173;-80
2022/06/19 11:28:07;;;;;;;11.30;6.35;;;;;;;34.99;22.64;95111.00;4939496;29;20236;-80
2022/06/19 11:30:45;;;;;;;16.17;6.30;;;;;;;35.12;22.34;95105.47;4957160;28;20231;-80
2022/06/19 11:33:19;;;;;;;15.60;6.43;;;;;;;34.72;23.41;95106.56;4955298;28;20235;-80
2022/06/19 11:35:53;;;;;;;11.15;6.35;;;;;;;35.14;22.19;95103.22;4954635;29;20247;-80
2022/06/19 11:38:38;;;;;;;10.38;6.18;;;;;;;35.34;21.96;95103.75;4955100;28;20184;-79
2022/06/19 11:41:22;;;;;;;15.30;7.10;;;;;;;35.08;21.65;95099.13;4954682;28;20276;-80
2022/06/19 11:44:06;;;;;;;11.02;5.90;;;;;;;34.79;22.40;95093.41;4954259;28;20283;-79
2022/06/19 11:46:43;;;;;;;12.15;6.50;;;;;;;35.32;21.63;95097.88;4956386;28;20228;-80